createdAt,value
2022-10-05T00:01:23.506Z,101447.25
2022-10-05T00:03:51.079Z,101438.72
2022-10-05T00:06:17.230Z,101427.88
2022-10-05T00:08:43.938Z,101444.28
2022-10-05T00:11:14.271Z,101451.88
2022-10-05T00:13:40.861Z,101456.44
2022-10-05T00:16:19.267Z,101447.91
2022-10-05T00:18:49.278Z,101456.44
2022-10-05T00:21:24.415Z,101457.28
2022-10-05T00:23:53.271Z,101452.59
2022-10-05T00:26:22.773Z,101441.91
2022-10-05T00:28:49.681Z,101430.66
2022-10-05T00:31:22.359Z,101426.63
2022-10-05T00:33:50.726Z,101430.19
2022-10-05T00:36:16.970Z,101415.91
2022-10-05T00:38:44.903Z,101402.63
2022-10-05T00:41:25.355Z,101385.59
2022-10-05T00:44:22.974Z,101403.63
2022-10-05T00:47:15.920Z,101396.28
2022-10-05T00:50:13.046Z,101406.63
2022-10-05T00:53:06.953Z,101401.25
2022-10-05T00:56:01.182Z,101419.41
2022-10-05T00:58:41.468Z,101409.28
2022-10-05T01:01:07.589Z,101419.72
2022-10-05T01:03:49.117Z,101408.72
2022-10-05T01:06:36.819Z,101390.31
2022-10-05T01:09:09.487Z,101392.75
2022-10-05T01:11:49.305Z,101392.78
2022-10-05T01:14:20.966Z,101398.47
2022-10-05T01:16:54.177Z,101404.91
2022-10-05T01:19:31.172Z,101394.91
2022-10-05T01:22:13.333Z,101406.63
2022-10-05T01:24:42.858Z,101400.78
2022-10-05T01:27:46.421Z,101392.06
2022-10-05T01:30:14.278Z,101394.91
2022-10-05T01:33:23.606Z,101394.75
2022-10-05T01:36:05.342Z,101397.91
2022-10-05T01:39:02.543Z,101392.63
2022-10-05T01:41:39.706Z,101393.06
2022-10-05T01:44:14.184Z,101396.63
2022-10-05T01:46:56.417Z,101382.91
2022-10-05T01:49:46.929Z,101383.75
2022-10-05T01:53:06.097Z,101391.03
2022-10-05T01:55:47.631Z,101393.75
2022-10-05T01:58:40.446Z,101392.59
2022-10-05T02:01:16.775Z,101393.13
2022-10-05T02:03:52.698Z,101381.44
2022-10-05T02:06:31.519Z,101378.16
2022-10-05T02:09:04.527Z,101388.16
2022-10-05T02:11:33.119Z,101387.03
2022-10-05T02:14:06.854Z,101379.88
2022-10-05T02:16:39.142Z,101375.59
2022-10-05T02:19:08.514Z,101377.31
2022-10-05T02:21:35.990Z,101378.75
2022-10-05T02:24:11.055Z,101366.19
2022-10-05T02:26:39.843Z,101374.50
2022-10-05T02:29:10.840Z,101354.38
2022-10-05T02:31:40.205Z,101360.22
2022-10-05T02:34:29.437Z,101352.06
2022-10-05T02:37:26.536Z,101354.50
2022-10-05T02:40:15.277Z,101356.50
2022-10-05T02:42:59.362Z,101354.94
2022-10-05T02:45:40.927Z,101365.22
2022-10-05T02:48:12.033Z,101369.66
2022-10-05T02:50:49.393Z,101374.22
2022-10-05T02:53:36.942Z,101380.22
2022-10-05T02:56:30.346Z,101375.22
2022-10-05T02:59:15.008Z,101372.22
2022-10-05T03:01:55.320Z,101369.94
2022-10-05T03:04:32.078Z,101361.66
2022-10-05T03:07:08.122Z,101357.94
2022-10-05T03:09:43.343Z,101348.22
2022-10-05T03:12:43.840Z,101356.78
2022-10-05T03:15:40.093Z,101351.50
2022-10-05T03:18:31.002Z,101350.50
2022-10-05T03:21:31.315Z,101348.06
2022-10-05T03:24:16.678Z,101344.50
2022-10-05T03:26:50.693Z,101343.50
2022-10-05T03:29:28.738Z,101354.22
2022-10-05T03:32:14.940Z,101357.66
2022-10-05T03:34:56.540Z,101356.34
2022-10-05T03:37:33.985Z,101354.22
2022-10-05T03:40:18.773Z,101352.81
2022-10-05T03:42:58.229Z,101354.94
2022-10-05T03:45:41.439Z,101348.38
2022-10-05T03:48:13.470Z,101343.38
2022-10-05T03:50:45.908Z,101341.53
2022-10-05T03:53:26.702Z,101347.09
2022-10-05T03:56:05.992Z,101358.38
2022-10-05T03:58:32.520Z,101359.38
2022-10-05T04:01:04.907Z,101367.19
2022-10-05T04:03:45.854Z,101366.50
2022-10-05T04:06:25.596Z,101367.66
2022-10-05T04:08:55.694Z,101359.78
2022-10-05T04:11:29.745Z,101358.50
2022-10-05T04:14:12.290Z,101352.63
2022-10-05T04:16:49.616Z,101349.16
2022-10-05T04:19:35.982Z,101350.75
2022-10-05T04:22:21.244Z,101348.88
2022-10-05T04:25:02.672Z,101344.41
2022-10-05T04:27:38.591Z,101349.97
2022-10-05T04:30:11.972Z,101342.25
2022-10-05T04:32:44.264Z,101345.22
2022-10-05T04:35:40.513Z,101358.66
2022-10-05T04:38:25.855Z,101353.09
2022-10-05T04:41:20.773Z,101365.78
2022-10-05T04:44:29.847Z,101358.66
2022-10-05T04:47:15.622Z,101359.63
2022-10-05T04:49:55.088Z,101353.19
2022-10-05T04:52:46.619Z,101356.44
2022-10-05T04:55:46.116Z,101361.94
2022-10-05T04:58:42.277Z,101359.63
2022-10-05T05:01:44.125Z,101356.88
2022-10-05T05:04:41.568Z,101354.63
2022-10-05T05:07:36.098Z,101357.06
2022-10-05T05:10:14.484Z,101347.34
2022-10-05T05:12:50.079Z,101350.78
2022-10-05T05:15:29.138Z,101360.69
2022-10-05T05:18:28.598Z,101358.44
2022-10-05T05:21:16.013Z,101346.06
2022-10-05T05:23:54.893Z,101326.66
2022-10-05T05:26:45.784Z,101341.69
2022-10-05T05:29:37.253Z,101344.44
2022-10-05T05:32:15.128Z,101344.47
2022-10-05T05:35:06.244Z,101346.75
2022-10-05T05:37:43.768Z,101343.34
2022-10-05T05:40:35.521Z,101349.66
2022-10-05T05:43:10.886Z,101337.66
2022-10-05T05:45:41.753Z,101341.97
2022-10-05T05:48:25.828Z,101339.66
2022-10-05T05:51:14.198Z,101345.22
2022-10-05T05:53:44.554Z,101339.66
2022-10-05T05:56:20.283Z,101346.84
2022-10-05T05:59:22.623Z,101349.13
2022-10-05T06:01:56.071Z,101345.13
2022-10-05T06:04:30.699Z,101352.56
2022-10-05T06:07:01.775Z,101355.41
2022-10-05T06:09:36.608Z,101351.53
2022-10-05T06:12:22.051Z,101340.47
2022-10-05T06:14:57.658Z,101350.84
2022-10-05T06:17:29.618Z,101345.53
2022-10-05T06:20:03.947Z,101351.75
2022-10-05T06:22:38.108Z,101354.16
2022-10-05T06:25:15.745Z,101356.19
2022-10-05T06:28:13.159Z,101357.03
2022-10-05T06:31:44.441Z,101355.84
2022-10-05T06:34:30.374Z,101357.91
2022-10-05T06:37:05.083Z,101358.47
2022-10-05T06:39:55.458Z,101361.78
2022-10-05T06:42:50.804Z,101357.34
2022-10-05T06:45:55.683Z,101353.03
2022-10-05T06:49:15.652Z,101349.94
2022-10-05T06:52:35.115Z,101347.63
2022-10-05T06:55:21.551Z,101343.69
2022-10-05T06:58:21.742Z,101354.47
2022-10-05T07:00:57.737Z,101355.81
2022-10-05T07:03:41.967Z,101343.66
2022-10-05T07:06:08.609Z,101346.00
2022-10-05T07:08:41.799Z,101355.41
2022-10-05T07:11:40.840Z,101350.03
2022-10-05T07:14:21.785Z,101346.59
2022-10-05T07:17:23.012Z,101354.53
2022-10-05T07:20:15.023Z,101333.47
2022-10-05T07:22:53.401Z,101338.94
2022-10-05T07:25:32.139Z,101337.53
2022-10-05T07:28:13.742Z,101330.84
2022-10-05T07:30:55.550Z,101339.34
2022-10-05T07:33:35.199Z,101327.63
2022-10-05T07:36:30.905Z,101331.63
2022-10-05T07:39:10.927Z,101332.38
2022-10-05T07:41:45.356Z,101337.94
2022-10-05T07:44:19.857Z,101332.59
2022-10-05T07:46:56.050Z,101323.78
2022-10-05T07:49:40.590Z,101322.94
2022-10-05T07:52:25.441Z,101327.06
2022-10-05T07:55:21.007Z,101327.56
2022-10-05T07:58:05.170Z,101330.31
2022-10-05T08:00:59.725Z,101325.03
2022-10-05T08:03:43.971Z,101326.84
2022-10-05T08:06:40.094Z,101333.56
2022-10-05T08:09:51.271Z,101341.75
2022-10-05T08:12:24.256Z,101331.88
2022-10-05T08:15:02.600Z,101327.09
2022-10-05T08:17:38.448Z,101329.97
2022-10-05T08:20:26.685Z,101325.03
2022-10-05T08:23:15.191Z,101341.94
2022-10-05T08:26:00.221Z,101334.25
2022-10-05T08:28:36.162Z,101328.81
2022-10-05T08:31:26.060Z,101326.41
2022-10-05T08:34:16.087Z,101327.25
2022-10-05T08:36:54.056Z,101334.94
2022-10-05T08:39:23.936Z,101338.69
2022-10-05T08:42:08.713Z,101339.19
2022-10-05T08:44:54.363Z,101340.03
2022-10-05T08:47:58.242Z,101346.00
2022-10-05T08:50:33.616Z,101334.22
2022-10-05T08:53:26.681Z,101338.50
2022-10-05T08:56:19.083Z,101341.91
2022-10-05T08:59:04.438Z,101335.41
2022-10-05T09:02:02.418Z,101333.66
2022-10-05T09:04:42.365Z,101328.69
2022-10-05T09:07:18.544Z,101326.22
2022-10-05T09:09:56.253Z,101312.34
2022-10-05T09:12:51.912Z,101320.59
2022-10-05T09:16:02.499Z,101309.50
2022-10-05T09:18:41.261Z,101317.13
2022-10-05T09:21:28.923Z,101306.47
2022-10-05T09:24:22.349Z,101309.75
2022-10-05T09:26:59.676Z,101315.22
2022-10-05T09:30:04.175Z,101320.00
2022-10-05T09:32:51.484Z,101324.16
2022-10-05T09:35:48.721Z,101325.19
2022-10-05T09:38:15.391Z,101316.56
2022-10-05T09:41:03.319Z,101324.53
2022-10-05T09:44:12.930Z,101312.31
2022-10-05T09:46:53.640Z,101320.34
2022-10-05T09:49:50.744Z,101311.88
2022-10-05T09:52:35.330Z,101320.34
2022-10-05T09:55:30.266Z,101303.66
2022-10-05T09:58:15.165Z,101316.56
2022-10-05T10:01:03.767Z,101311.47
2022-10-05T10:04:07.218Z,101304.72
2022-10-05T10:06:55.402Z,101295.72
2022-10-05T10:09:36.493Z,101301.34
2022-10-05T10:12:32.464Z,101305.38
2022-10-05T10:15:26.757Z,101301.69
2022-10-05T10:18:35.439Z,101289.75
2022-10-05T10:21:20.712Z,101283.78
2022-10-05T10:23:54.396Z,101284.91
2022-10-05T10:26:29.853Z,101275.81
2022-10-05T10:29:33.783Z,101276.09
2022-10-05T10:32:29.916Z,101276.59
2022-10-05T10:35:14.581Z,101274.06
2022-10-05T10:38:13.317Z,101272.44
2022-10-05T10:41:11.151Z,101273.75
2022-10-05T10:44:29.241Z,101264.28
2022-10-05T10:47:30.056Z,101264.38
2022-10-05T10:49:59.013Z,101270.44
2022-10-05T10:52:43.575Z,101262.78
2022-10-05T10:55:47.602Z,101256.44
2022-10-05T10:58:27.727Z,101256.59
2022-10-05T11:01:07.698Z,101242.25
2022-10-05T11:03:55.029Z,101233.78
2022-10-05T11:06:44.030Z,101240.59
2022-10-05T11:09:25.624Z,101234.22
2022-10-05T11:12:24.781Z,101241.50
2022-10-05T11:15:12.579Z,101243.38
2022-10-05T11:17:57.714Z,101246.63
2022-10-05T11:20:44.394Z,101239.47
2022-10-05T11:23:42.594Z,101234.19
2022-10-05T11:26:57.240Z,101231.28
2022-10-05T11:29:46.989Z,101241.88
2022-10-05T11:32:49.519Z,101242.44
2022-10-05T11:35:38.015Z,101241.34
2022-10-05T11:38:19.720Z,101242.97
2022-10-05T11:41:05.559Z,101240.81
2022-10-05T11:43:34.762Z,101242.97
2022-10-05T11:46:19.141Z,101249.44
2022-10-05T11:49:13.329Z,101242.28
2022-10-05T11:52:00.257Z,101248.56
2022-10-05T11:55:15.357Z,101240.97
2022-10-05T11:57:50.037Z,101237.84
2022-10-05T12:00:20.312Z,101223.25
2022-10-05T12:02:53.033Z,101221.59
2022-10-05T12:05:23.959Z,101223.72
2022-10-05T12:08:09.022Z,101215.69
2022-10-05T12:11:07.956Z,101222.69
2022-10-05T12:13:45.103Z,101222.88
2022-10-05T12:16:28.063Z,101203.53
2022-10-05T12:19:02.608Z,101199.75
2022-10-05T12:21:48.123Z,101189.31
2022-10-05T12:24:42.984Z,101181.72
2022-10-05T12:27:24.784Z,101184.16
2022-10-05T12:30:01.069Z,101183.28
2022-10-05T12:32:39.514Z,101181.63
2022-10-05T12:35:36.664Z,101178.03
2022-10-05T12:38:17.414Z,101173.13
2022-10-05T12:40:50.990Z,101175.56
2022-10-05T12:43:23.735Z,101174.91
2022-10-05T12:46:06.261Z,101181.59
2022-10-05T12:48:57.596Z,101159.22
2022-10-05T12:52:10.229Z,101166.00
2022-10-05T12:54:50.060Z,101171.91
2022-10-05T12:57:25.763Z,101162.63
2022-10-05T13:00:12.045Z,101156.25
2022-10-05T13:03:07.610Z,101155.75
2022-10-05T13:06:00.303Z,101154.41
2022-10-05T13:08:53.496Z,101148.06
2022-10-05T13:11:31.933Z,101152.66
2022-10-05T13:14:34.269Z,101153.31
2022-10-05T13:17:23.558Z,101161.16
2022-10-05T13:19:59.562Z,101156.59
2022-10-05T13:22:29.008Z,101155.22
2022-10-05T13:25:13.625Z,101148.06
2022-10-05T13:27:44.989Z,101152.81
2022-10-05T13:30:21.272Z,101151.88
2022-10-05T13:33:25.815Z,101143.88
2022-10-05T13:36:20.379Z,101136.94
2022-10-05T13:38:57.725Z,101136.59
2022-10-05T13:41:45.737Z,101120.97
2022-10-05T13:44:33.831Z,101126.28
2022-10-05T13:47:06.710Z,101124.38
2022-10-05T13:49:55.315Z,101119.44
2022-10-05T13:52:42.018Z,101118.16
2022-10-05T13:55:21.429Z,101115.59
2022-10-05T13:57:54.861Z,101117.25
2022-10-05T14:00:26.630Z,101109.59
2022-10-05T14:02:55.995Z,101106.34
2022-10-05T14:05:24.243Z,101117.53
2022-10-05T14:08:15.789Z,101105.44
2022-10-05T14:10:45.633Z,101099.41
2022-10-05T14:13:12.839Z,101101.25
2022-10-05T14:15:55.105Z,101094.84
2022-10-05T14:18:25.251Z,101083.84
2022-10-05T14:21:01.889Z,101091.31
2022-10-05T14:23:29.236Z,101082.03
2022-10-05T14:25:58.217Z,101084.06
2022-10-05T14:28:37.812Z,101084.25
2022-10-05T14:31:15.662Z,101081.09
2022-10-05T14:33:42.341Z,101082.16
2022-10-05T14:36:17.479Z,101080.72
2022-10-05T14:38:57.814Z,101083.59
2022-10-05T14:41:27.710Z,101074.91
2022-10-05T14:44:05.154Z,101078.91
2022-10-05T14:46:34.191Z,101072.91
2022-10-05T14:49:21.454Z,101071.13
2022-10-05T14:51:49.392Z,101075.13
2022-10-05T14:54:51.633Z,101065.84
2022-10-05T14:57:24.526Z,101060.94
2022-10-05T15:00:10.932Z,101067.88
2022-10-05T15:02:52.599Z,101067.22
2022-10-05T15:05:26.076Z,101064.00
2022-10-05T15:08:11.079Z,101057.88
2022-10-05T15:10:49.210Z,101055.13
2022-10-05T15:13:22.996Z,101049.03
2022-10-05T15:15:56.837Z,101040.59
2022-10-05T15:18:37.663Z,101045.84
2022-10-05T15:21:21.837Z,101046.44
2022-10-05T15:23:54.496Z,101041.78
2022-10-05T15:26:49.864Z,101050.41
2022-10-05T15:30:00.330Z,101043.44
2022-10-05T15:33:08.533Z,101038.28
2022-10-05T15:35:43.809Z,101044.31
2022-10-05T15:38:20.869Z,101045.38
2022-10-05T15:41:09.355Z,101042.44
2022-10-05T15:44:00.510Z,101038.19
2022-10-05T15:46:54.828Z,101032.88
2022-10-05T15:49:43.031Z,101039.81
2022-10-05T15:52:29.385Z,101046.00
2022-10-05T15:55:17.182Z,101035.31
2022-10-05T15:57:47.632Z,101036.00
2022-10-05T16:00:16.643Z,101037.34
2022-10-05T16:02:53.082Z,101036.88
2022-10-05T16:05:56.669Z,101045.03
2022-10-05T16:08:50.378Z,101042.47
2022-10-05T16:11:36.944Z,101040.41
2022-10-05T16:14:09.191Z,101040.78
2022-10-05T16:16:53.651Z,101040.19
2022-10-05T16:19:40.088Z,101044.34
2022-10-05T16:22:15.766Z,101041.31
2022-10-05T16:25:27.966Z,101045.84
2022-10-05T16:28:06.710Z,101042.16
2022-10-05T16:30:57.947Z,101042.34
2022-10-05T16:33:42.258Z,101047.03
2022-10-05T16:36:24.876Z,101046.94
2022-10-05T16:39:06.159Z,101046.63
2022-10-05T16:41:47.218Z,101041.91
2022-10-05T16:44:35.525Z,101049.31
2022-10-05T16:47:27.472Z,101050.59
2022-10-05T16:50:27.417Z,101049.63
2022-10-05T16:53:02.626Z,101053.59
2022-10-05T16:55:35.066Z,101052.63
2022-10-05T16:58:18.430Z,101054.84
2022-10-05T17:01:04.252Z,101060.38
2022-10-05T17:04:00.005Z,101055.28
2022-10-05T17:06:45.638Z,101059.41
2022-10-05T17:09:29.172Z,101062.00
2022-10-05T17:12:15.462Z,101052.81
2022-10-05T17:15:08.282Z,101055.41
2022-10-05T17:17:37.493Z,101068.75
2022-10-05T17:20:22.990Z,101062.97
2022-10-05T17:22:50.580Z,101066.94
2022-10-05T17:26:05.169Z,101062.00
2022-10-05T17:29:00.037Z,101065.59
2022-10-05T17:31:30.498Z,101062.56
2022-10-05T17:34:25.531Z,101068.19
2022-10-05T17:37:34.607Z,101068.22
2022-10-05T17:40:29.941Z,101071.84
2022-10-05T17:43:04.066Z,101067.56
2022-10-05T17:45:30.905Z,101063.84
2022-10-05T17:48:03.451Z,101065.03
2022-10-05T17:51:05.134Z,101061.66
2022-10-05T17:54:03.335Z,101060.16
2022-10-05T17:56:33.100Z,101058.78
2022-10-05T17:59:03.528Z,101058.44
2022-10-05T18:01:40.099Z,101055.53
2022-10-05T18:04:12.648Z,101051.47
2022-10-05T18:06:47.331Z,101046.19
2022-10-05T18:09:16.236Z,101052.47
2022-10-05T18:11:47.502Z,101050.94
2022-10-05T18:14:24.437Z,101049.59
2022-10-05T18:17:11.823Z,101056.25
2022-10-05T18:19:38.934Z,101049.94
2022-10-05T18:22:27.052Z,101043.97
2022-10-05T18:25:07.136Z,101050.28
2022-10-05T18:27:36.406Z,101050.13
2022-10-05T18:30:19.334Z,101048.56
2022-10-05T18:32:51.936Z,101043.97
2022-10-05T18:35:27.761Z,101041.25
2022-10-05T18:38:18.138Z,101055.75
2022-10-05T18:40:58.680Z,101035.78
2022-10-05T18:43:37.458Z,101041.41
2022-10-05T18:46:09.016Z,101045.50
2022-10-05T18:48:45.274Z,101044.16
2022-10-05T18:51:19.785Z,101049.25
2022-10-05T18:54:12.672Z,101047.56
2022-10-05T18:56:48.078Z,101049.44
2022-10-05T18:59:43.682Z,101042.09
2022-10-05T19:02:30.256Z,101048.59
2022-10-05T19:05:23.580Z,101049.28
2022-10-05T19:08:08.051Z,101050.47
2022-10-05T19:10:57.585Z,101050.97
2022-10-05T19:13:30.816Z,101054.72
2022-10-05T19:16:19.306Z,101055.41
2022-10-05T19:19:03.768Z,101059.00
2022-10-05T19:21:55.087Z,101054.38
2022-10-05T19:24:36.869Z,101056.78
2022-10-05T19:27:25.772Z,101052.50
2022-10-05T19:30:11.514Z,101058.28
2022-10-05T19:33:12.844Z,101059.50
2022-10-05T19:36:08.004Z,101061.19
2022-10-05T19:38:40.775Z,101073.13
2022-10-05T19:41:12.856Z,101067.31
2022-10-05T19:43:56.349Z,101078.56
2022-10-05T19:46:47.447Z,101082.47
2022-10-05T19:49:34.984Z,101082.31
2022-10-05T19:52:02.718Z,101083.34
2022-10-05T19:54:29.525Z,101080.78
2022-10-05T19:56:57.764Z,101077.38
2022-10-05T19:59:32.249Z,101088.09
2022-10-05T20:01:59.245Z,101090.09
2022-10-05T20:04:42.521Z,101094.16
2022-10-05T20:07:16.446Z,101096.22
2022-10-05T20:10:17.997Z,101091.94
2022-10-05T20:12:56.896Z,101098.91
2022-10-05T20:15:45.532Z,101103.47
2022-10-05T20:18:57.058Z,101101.22
2022-10-05T20:21:45.829Z,101109.22
2022-10-05T20:24:24.983Z,101108.00
2022-10-05T20:27:01.346Z,101110.19
2022-10-05T20:29:30.102Z,101116.28
2022-10-05T20:31:56.844Z,101124.44
2022-10-05T20:34:23.926Z,101117.47
2022-10-05T20:36:50.465Z,101121.19
2022-10-05T20:39:18.432Z,101122.91
2022-10-05T20:41:45.617Z,101129.38
2022-10-05T20:44:12.750Z,101126.66
2022-10-05T20:46:42.109Z,101136.47
2022-10-05T20:49:12.406Z,101132.03
2022-10-05T20:51:39.796Z,101126.06
2022-10-05T20:54:07.267Z,101122.13
2022-10-05T20:56:34.037Z,101129.97
2022-10-05T20:59:00.457Z,101131.03
2022-10-05T21:01:28.321Z,101128.50
2022-10-05T21:03:55.403Z,101126.81
2022-10-05T21:06:22.228Z,101140.44
2022-10-05T21:08:50.671Z,101130.50
2022-10-05T21:11:17.606Z,101144.28
2022-10-05T21:13:45.081Z,101135.72
2022-10-05T21:16:16.086Z,101133.31
2022-10-05T21:18:44.689Z,101142.03
2022-10-05T21:21:10.892Z,101137.44
2022-10-05T21:23:37.071Z,101140.84
2022-10-05T21:26:03.385Z,101136.25
2022-10-05T21:28:30.713Z,101134.22
2022-10-05T21:30:57.409Z,101142.25
2022-10-05T21:33:23.852Z,101138.50
2022-10-05T21:35:50.073Z,101134.94
2022-10-05T21:38:16.235Z,101137.13
2022-10-05T21:40:44.707Z,101135.25
2022-10-05T21:43:11.080Z,101142.03
2022-10-05T21:45:41.653Z,101146.31
2022-10-05T21:48:08.625Z,101136.25
2022-10-05T21:50:36.961Z,101146.31
2022-10-05T21:53:06.629Z,101142.88
2022-10-05T21:55:36.917Z,101146.78
2022-10-05T21:58:03.572Z,101150.34
2022-10-05T22:00:30.272Z,101152.75
2022-10-05T22:02:56.424Z,101153.44
2022-10-05T22:05:22.667Z,101160.94
2022-10-05T22:07:51.075Z,101166.91
2022-10-05T22:10:17.445Z,101159.75
2022-10-05T22:12:46.409Z,101164.03
2022-10-05T22:15:13.118Z,101157.72
2022-10-05T22:17:39.642Z,101162.00
2022-10-05T22:20:06.794Z,101156.03
2022-10-05T22:22:33.181Z,101153.13
2022-10-05T22:24:59.421Z,101161.31
2022-10-05T22:27:28.316Z,101157.56
2022-10-05T22:29:57.277Z,101163.34
2022-10-05T22:32:23.925Z,101160.75
2022-10-05T22:34:50.122Z,101159.59
2022-10-05T22:37:16.468Z,101158.03
2022-10-05T22:39:42.954Z,101158.69
2022-10-05T22:42:09.305Z,101154.25
2022-10-05T22:44:35.734Z,101161.56
2022-10-05T22:47:03.331Z,101165.31
2022-10-05T22:49:29.454Z,101165.63
2022-10-05T22:51:56.703Z,101168.28
2022-10-05T22:54:26.260Z,101164.03
2022-10-05T22:56:54.956Z,101169.09
2022-10-05T22:59:22.023Z,101164.69
2022-10-05T23:01:48.174Z,101165.84
2022-10-05T23:04:14.343Z,101166.16
2022-10-05T23:06:42.002Z,101171.06
2022-10-05T23:09:08.093Z,101179.38
2022-10-05T23:11:34.717Z,101171.06
2022-10-05T23:14:01.281Z,101178.38
2022-10-05T23:16:28.257Z,101171.38
2022-10-05T23:18:55.277Z,101170.22
2022-10-05T23:21:23.817Z,101173.94
2022-10-05T23:23:52.827Z,101167.63
2022-10-05T23:26:21.143Z,101164.75
2022-10-05T23:28:48.489Z,101168.88
2022-10-05T23:31:17.128Z,101174.16
2022-10-05T23:33:43.403Z,101180.47
2022-10-05T23:36:19.035Z,101179.38
2022-10-05T23:38:45.510Z,101175.50
2022-10-05T23:41:12.709Z,101182.81
2022-10-05T23:43:38.998Z,101191.97
2022-10-05T23:46:06.921Z,101195.41
2022-10-05T23:48:37.234Z,101191.81
2022-10-05T23:51:10.076Z,101200.84
2022-10-05T23:53:36.953Z,101198.28
2022-10-05T23:56:03.633Z,101197.88
2022-10-05T23:58:30.351Z,101202.31
